Admire, KS (66830)

8:58 AM CDT on June 30, 2015 (GMT -0500)
30th & Graphic Arts Rd | | Change Station
CLOSE
Current Station
Personal Weather Station
Location: Emporia, KS
Elevation: 1201 ft
Nearby Weather Stations

Elev 1201 ft 38.44 °N, 96.23 °W | Updated 3 minutes ago

Partly Cloudy
Partly Cloudy
79.8 °F
Feels Like 86 °F
N
7.0
Wind Variable Wind from West
Gusts 8.0 mph

Today
High -- | Low -- °F
--% Chance of Precip.
Yesterday
High -- | Low -- °F
Precip. -- in
6:03 AM 8:52 PM
Waxing Gibbous, 97% visible
Pressure 29.96 in
Visibility 10.0 miles
Clouds Few 4300 ft
Heat Index 86 °F
Dew Point 80 °F
Humidity 100%
Rainfall 0.00 in
Snow Depth Not available.
UV 3 out of 12
Pollen 4.50 out of 12
Air Quality Not available.
Flu Activity No Activity
METAR KEMP 301353Z AUTO 29003KT 10SM FEW043 24/18 A2998 RMK AO2 SLP144 T02390183

More Conditions Fewer Conditions

Pressure 29.96 in
Visibility 10.0 miles
Clouds Few 4300 ft
Heat Index 86 °F
Dew Point 80 °F
Humidity 100%
Rainfall 0.00 in
Snow Depth Not available.
UV 3 out of 12
Pollen 4.50 out of 12
Air Quality Not available.
Flu Activity No Activity
METAR KEMP 301353Z AUTO 29003KT 10SM FEW043 24/18 A2998 RMK AO2 SLP144 T02390183

More Conditions Fewer Conditions

10-Day Weather Forecast

×

Almanac

Astronomy

Jun. 30, 2015 Rise Set
Actual Time
Civil Twilight
Nautical Twilight
Astronomical Twilight
Moon
Length of Visible Light
Length of Day
Tomorrow will be .
, % of the Moon is Illuminated

Today's Extremes

State Highs State Lows

Community

WunderPhotos

Upload Photos

1,833,994 photos uploaded!

WunderBlogs® & News

Nearby

Air Quality

  Air Quality AQ Index Pollutant
Not available.

Snow Depth

Station Depth Elevation

Earthquake Activity

City Distance Mag. Time & Date
Minimum magnitude displayed is 2.5.

Coastal Water Temperatures

Place Temperature

Stations

Nearby Weather Stations

Station Location Temp. Windchill Dew Point Humidity Wind Precip. Elev Updated Type